Time;durP1;ratioP1;P1;durP2;ratioP2;P2;SDS_P1;SDS_P2;PMS_P1;PMS_P2;Temp;Humidity;BMP_temperature;BMP_pressure;BME280_temperature;BME280_humidity;BME280_pressure;Samples;Min_cycle;Max_cycle;Signal;HPM_P1;HPM_P2
2023/07/19 00:01:54;;;;;;;2.58;1.95;;;22.20;52.30;;;;;;4960548;28;20339;-53
2023/07/19 00:04:20;;;;;;;3.80;1.67;;;22.30;52.40;;;;;;4961446;28;20616;-51
2023/07/19 00:06:46;;;;;;;1.85;1.52;;;22.30;52.50;;;;;;4963612;28;20034;-49
2023/07/19 00:09:11;;;;;;;2.28;1.85;;;22.30;52.60;;;;;;4961102;28;20043;-53
2023/07/19 00:11:37;;;;;;;2.47;1.70;;;22.20;52.50;;;;;;4960809;28;20042;-51
2023/07/19 00:14:05;;;;;;;2.33;1.85;;;22.20;52.60;;;;;;4959736;28;20084;-48
2023/07/19 00:16:31;;;;;;;3.15;1.98;;;22.20;52.60;;;;;;4957807;28;20066;-51
2023/07/19 00:18:57;;;;;;;2.75;1.83;;;22.20;52.60;;;;;;4963515;28;20062;-50
2023/07/19 00:21:23;;;;;;;2.88;1.80;;;22.20;52.70;;;;;;4964324;28;20082;-53
2023/07/19 00:23:48;;;;;;;1.80;1.50;;;22.20;52.60;;;;;;4958081;28;20030;-50
2023/07/19 00:26:14;;;;;;;3.58;2.17;;;22.20;52.60;;;;;;4963669;28;20038;-53
2023/07/19 00:28:40;;;;;;;3.00;1.95;;;22.20;52.60;;;;;;4962729;28;20038;-51
2023/07/19 00:31:05;;;;;;;2.45;1.80;;;22.20;52.60;;;;;;4958058;28;20028;-52
2023/07/19 00:33:31;;;;;;;2.35;1.90;;;22.20;53.20;;;;;;4960441;28;20504;-52
2023/07/19 00:35:57;;;;;;;2.85;1.67;;;22.20;52.60;;;;;;4953769;28;20139;-49
2023/07/19 00:38:22;;;;;;;3.30;1.58;;;22.10;52.60;;;;;;4953103;28;20063;-51
2023/07/19 00:40:49;;;;;;;2.15;1.60;;;22.20;52.70;;;;;;4957618;28;20023;-52
2023/07/19 00:43:15;;;;;;;1.98;1.40;;;22.10;52.60;;;;;;4960122;28;20587;-52
2023/07/19 00:45:45;;;;;;;4.47;1.80;;;22.20;52.60;;;;;;4959503;28;20039;-56
2023/07/19 00:48:11;;;;;;;2.75;1.90;;;22.10;52.60;;;;;;4956100;28;20035;-52
2023/07/19 00:50:37;;;;;;;2.65;1.85;;;22.10;52.60;;;;;;4959710;28;20069;-52
2023/07/19 00:53:02;;;;;;;1.90;1.60;;;22.10;52.60;;;;;;4957689;28;20045;-52
2023/07/19 00:55:28;;;;;;;2.78;1.80;;;22.10;52.60;;;;;;4962618;28;20053;-50
2023/07/19 00:57:54;;;;;;;3.13;1.80;;;22.10;52.60;;;;;;4949728;28;20632;-53
2023/07/19 01:00:21;;;;;;;3.05;1.20;;;22.10;52.50;;;;;;4952709;28;20473;-51
2023/07/19 01:02:46;;;;;;;2.42;1.50;;;22.10;53.70;;;;;;4960882;28;20495;-52
2023/07/19 01:05:12;;;;;;;2.63;1.85;;;22.10;52.60;;;;;;4956591;28;20042;-53
2023/07/19 01:07:37;;;;;;;2.65;1.77;;;22.10;52.60;;;;;;4958865;28;20034;-53
2023/07/19 01:10:05;;;;;;;2.17;1.60;;;22.10;52.60;;;;;;4962383;28;20045;-50
2023/07/19 01:12:30;;;;;;;2.40;1.88;;;22.10;52.70;;;;;;4959406;28;20038;-52
2023/07/19 01:14:56;;;;;;;2.75;1.50;;;22.10;52.80;;;;;;4961148;28;20046;-50
2023/07/19 01:17:21;;;;;;;2.80;2.05;;;22.10;52.80;;;;;;4961861;28;20401;-51
2023/07/19 01:19:47;;;;;;;2.28;1.80;;;22.10;52.80;;;;;;4959921;28;20055;-54
2023/07/19 01:22:13;;;;;;;3.47;1.80;;;22.10;52.90;;;;;;4963379;28;20121;-52
2023/07/19 01:24:40;;;;;;;2.00;1.55;;;22.00;52.80;;;;;;4958942;28;20031;-50
2023/07/19 01:27:06;;;;;;;3.03;1.70;;;22.10;53.00;;;;;;4959019;28;20162;-52
2023/07/19 01:29:32;;;;;;;2.42;1.80;;;22.00;52.90;;;;;;4946827;28;20253;-51
2023/07/19 01:31:57;;;;;;;2.42;2.00;;;22.00;52.90;;;;;;4956824;28;20067;-50
2023/07/19 01:34:23;;;;;;;2.42;1.88;;;22.00;52.90;;;;;;4959593;28;20050;-50
2023/07/19 01:36:48;;;;;;;4.18;1.83;;;22.00;53.00;;;;;;4962769;28;20030;-51
2023/07/19 01:39:14;;;;;;;4.07;2.30;;;22.10;52.90;;;;;;4958533;28;20039;-52
2023/07/19 01:41:39;;;;;;;2.45;1.90;;;22.00;52.90;;;;;;4959133;28;20057;-50
2023/07/19 01:44:05;;;;;;;4.30;1.60;;;22.00;52.90;;;;;;4953827;28;20085;-50
2023/07/19 01:46:30;;;;;;;2.75;1.88;;;22.00;52.80;;;;;;4962251;28;20373;-53
2023/07/19 01:48:56;;;;;;;2.45;1.67;;;22.00;52.80;;;;;;4959063;28;20035;-51
2023/07/19 01:51:21;;;;;;;2.30;1.38;;;22.00;52.80;;;;;;4954138;28;20038;-53
2023/07/19 01:53:47;;;;;;;2.38;1.80;;;22.00;52.80;;;;;;4965123;28;20043;-51
2023/07/19 01:56:13;;;;;;;3.25;1.65;;;22.00;52.80;;;;;;4966858;28;20042;-50
2023/07/19 01:58:38;;;;;;;2.08;1.88;;;22.00;52.90;;;;;;4966457;28;20127;-54
2023/07/19 02:01:04;;;;;;;2.65;1.83;;;22.00;52.90;;;;;;4962822;28;20484;-51
2023/07/19 02:03:29;;;;;;;5.30;1.95;;;22.00;52.90;;;;;;4962695;28;20030;-50
2023/07/19 02:05:59;;;;;;;2.45;1.75;;;21.90;52.90;;;;;;4955895;28;20489;-52
2023/07/19 02:08:25;;;;;;;2.10;1.75;;;21.90;52.90;;;;;;4966378;28;20039;-53
2023/07/19 02:10:50;;;;;;;2.00;1.73;;;21.90;53.00;;;;;;4960861;28;20023;-49
2023/07/19 02:13:16;;;;;;;3.20;1.75;;;21.90;53.00;;;;;;4959930;28;20082;-53
2023/07/19 02:15:41;;;;;;;1.90;1.63;;;21.90;52.90;;;;;;4966386;28;20506;-49
2023/07/19 02:18:07;;;;;;;2.75;1.50;;;21.90;52.90;;;;;;4958032;28;20031;-53
2023/07/19 02:20:32;;;;;;;2.95;1.63;;;21.90;53.00;;;;;;4966581;28;20089;-52
2023/07/19 02:22:58;;;;;;;3.03;2.72;;;21.90;53.00;;;;;;4966401;28;20387;-50
2023/07/19 02:25:23;;;;;;;2.40;1.75;;;21.90;53.10;;;;;;4958900;28;20035;-53
2023/07/19 02:27:49;;;;;;;4.05;1.98;;;21.90;53.10;;;;;;4957318;28;20599;-50
2023/07/19 02:30:14;;;;;;;3.00;1.75;;;21.90;53.00;;;;;;4960593;28;20055;-51
2023/07/19 02:32:40;;;;;;;2.35;1.98;;;21.90;53.00;;;;;;4953850;28;20173;-53
2023/07/19 02:35:06;;;;;;;2.78;1.70;;;21.90;53.10;;;;;;4965554;28;20418;-52
2023/07/19 02:37:32;;;;;;;2.30;1.70;;;21.90;53.10;;;;;;4959032;28;20035;-52
2023/07/19 02:39:57;;;;;;;1.98;1.80;;;21.90;53.10;;;;;;4964762;28;20155;-51
2023/07/19 02:42:23;;;;;;;2.13;1.70;;;21.90;53.20;;;;;;4952858;28;20445;-51
2023/07/19 02:44:49;;;;;;;2.42;1.88;;;21.90;53.20;;;;;;4957360;28;20039;-51
2023/07/19 02:47:15;;;;;;;4.45;1.98;;;21.80;53.20;;;;;;4965966;28;20543;-53
2023/07/19 02:49:41;;;;;;;2.10;1.80;;;21.80;53.20;;;;;;4966089;28;20034;-50
2023/07/19 02:52:08;;;;;;;2.28;1.50;;;21.80;53.30;;;;;;4957215;28;20054;-50
2023/07/19 02:54:34;;;;;;;3.30;2.10;;;21.80;53.30;;;;;;4965007;28;20412;-52
2023/07/19 02:56:59;;;;;;;2.08;1.70;;;21.80;53.30;;;;;;4959074;28;20027;-53
2023/07/19 02:59:25;;;;;;;3.45;1.60;;;21.80;53.30;;;;;;4965634;28;20038;-51
2023/07/19 03:01:50;;;;;;;2.38;1.90;;;21.80;53.30;;;;;;4965853;28;20038;-53
2023/07/19 03:04:16;;;;;;;3.30;2.20;;;21.80;53.10;;;;;;4966441;28;20500;-51
2023/07/19 03:06:41;;;;;;;4.15;1.90;;;21.80;53.10;;;;;;4954266;28;20094;-51
2023/07/19 03:09:07;;;;;;;1.70;1.42;;;21.80;53.10;;;;;;4952947;28;20047;-49
2023/07/19 03:11:33;;;;;;;2.25;1.70;;;21.80;53.00;;;;;;4961645;28;20061;-50
2023/07/19 03:13:58;;;;;;;3.35;2.20;;;21.80;53.00;;;;;;4961375;28;20034;-52
2023/07/19 03:16:24;;;;;;;2.65;1.83;;;21.80;53.00;;;;;;4953159;28;20093;-50
2023/07/19 03:18:49;;;;;;;2.30;1.65;;;21.80;53.00;;;;;;4956973;28;20085;-52
2023/07/19 03:21:15;;;;;;;2.75;1.50;;;21.80;53.00;;;;;;4956360;28;20035;-53
2023/07/19 03:23:40;;;;;;;3.35;2.13;;;21.70;53.10;;;;;;4946284;28;20035;-53
2023/07/19 03:26:07;;;;;;;4.07;2.08;;;21.70;53.10;;;;;;4963335;28;20043;-53
2023/07/19 03:28:33;;;;;;;3.13;1.90;;;21.80;53.20;;;;;;4950676;28;20480;-51
2023/07/19 03:30:58;;;;;;;2.42;1.50;;;21.80;53.30;;;;;;4959440;28;20045;-51
2023/07/19 03:33:25;;;;;;;3.33;2.00;;;21.80;53.30;;;;;;4963597;28;20477;-53
2023/07/19 03:35:50;;;;;;;3.08;2.00;;;21.80;53.30;;;;;;4962155;28;20035;-52
2023/07/19 03:38:18;;;;;;;2.13;1.63;;;21.80;53.30;;;;;;4967726;28;20031;-51
2023/07/19 03:40:44;;;;;;;2.47;1.85;;;21.70;53.30;;;;;;4955642;28;20098;-53
2023/07/19 03:43:10;;;;;;;2.00;1.70;;;21.70;53.30;;;;;;4953852;28;20489;-52
2023/07/19 03:45:35;;;;;;;2.08;1.58;;;21.80;53.50;;;;;;4963578;28;20062;-53
2023/07/19 03:48:01;;;;;;;1.88;1.70;;;21.80;53.50;;;;;;4979247;23;20809;-50
2023/07/19 03:50:26;;;;;;;3.47;2.50;;;21.70;53.40;;;;;;4941377;28;20043;-51
2023/07/19 03:52:52;;;;;;;3.58;2.35;;;21.70;53.40;;;;;;4926859;28;20063;-51
2023/07/19 03:55:18;;;;;;;2.47;1.80;;;21.70;53.40;;;;;;4934670;28;20036;-51
2023/07/19 03:57:43;;;;;;;2.95;2.10;;;21.70;53.50;;;;;;4946650;28;20059;-51
2023/07/19 04:00:09;;;;;;;2.65;1.80;;;21.70;53.60;;;;;;4944866;28;20043;-50
2023/07/19 04:02:35;;;;;;;2.22;1.60;;;21.70;53.70;;;;;;4945117;28;20027;-52
2023/07/19 04:05:00;;;;;;;2.65;1.83;;;21.70;53.70;;;;;;4925042;28;20042;-50
2023/07/19 04:07:26;;;;;;;2.35;1.63;;;21.70;53.80;;;;;;4932239;28;20171;-50
2023/07/19 04:09:52;;;;;;;3.50;1.90;;;21.70;53.90;;;;;;4933749;28;20218;-50
2023/07/19 04:12:17;;;;;;;2.47;2.03;;;21.80;54.00;;;;;;4930842;28;20039;-50
2023/07/19 04:14:43;;;;;;;3.45;1.48;;;21.70;54.10;;;;;;4943309;28;20425;-50
2023/07/19 04:17:10;;;;;;;2.00;1.73;;;21.80;54.20;;;;;;4941007;28;20098;-50
2023/07/19 04:19:36;;;;;;;3.45;1.90;;;21.70;54.30;;;;;;4944603;28;20114;-50
2023/07/19 04:22:02;;;;;;;2.00;1.50;;;21.70;54.40;;;;;;4934262;28;20159;-50
2023/07/19 04:24:28;;;;;;;1.85;1.45;;;21.70;54.50;;;;;;4934325;28;20461;-51
2023/07/19 04:26:54;;;;;;;1.85;1.70;;;21.80;55.30;;;;;;4927419;28;20048;-51
2023/07/19 04:29:20;;;;;;;2.00;1.52;;;21.70;54.70;;;;;;4932502;28;20035;-52
2023/07/19 04:31:46;;;;;;;2.85;2.10;;;21.80;54.80;;;;;;4923789;28;20031;-50
2023/07/19 04:34:12;;;;;;;3.55;2.60;;;21.70;54.90;;;;;;4929996;28;20070;-51
2023/07/19 04:36:37;;;;;;;2.08;1.40;;;21.70;54.90;;;;;;4925482;28;20036;-50
2023/07/19 04:39:03;;;;;;;2.95;2.20;;;21.70;55.00;;;;;;4932992;28;20075;-51
2023/07/19 04:41:29;;;;;;;2.42;1.75;;;21.70;55.10;;;;;;4925498;28;20114;-50
2023/07/19 04:43:54;;;;;;;2.28;1.77;;;21.80;55.10;;;;;;4934164;28;20111;-50
2023/07/19 04:46:21;;;;;;;1.85;1.38;;;21.80;55.10;;;;;;4934665;28;20039;-53
2023/07/19 04:48:47;;;;;;;3.15;1.75;;;21.80;55.10;;;;;;4939677;28;20049;-52
2023/07/19 04:51:13;;;;;;;2.42;1.45;;;21.90;55.20;;;;;;4930276;28;20028;-50
2023/07/19 04:53:38;;;;;;;2.20;1.95;;;21.80;55.10;;;;;;4944217;28;20551;-50
2023/07/19 04:56:04;;;;;;;3.45;1.90;;;21.90;55.20;;;;;;4938365;28;20028;-51
2023/07/19 04:58:29;;;;;;;2.05;1.70;;;21.90;55.30;;;;;;4939969;28;20036;-52
2023/07/19 05:00:55;;;;;;;3.70;1.85;;;21.90;55.40;;;;;;4921758;28;20038;-51
2023/07/19 05:03:22;;;;;;;2.25;1.65;;;21.90;55.40;;;;;;4933443;28;20044;-50
2023/07/19 05:05:47;;;;;;;2.38;1.70;;;21.90;55.60;;;;;;4935590;28;20054;-52
2023/07/19 05:08:13;;;;;;;2.40;1.92;;;21.90;55.60;;;;;;4934170;28;20164;-50
2023/07/19 05:10:39;;;;;;;1.80;1.60;;;21.90;55.60;;;;;;4925994;28;20098;-50
2023/07/19 05:13:05;;;;;;;2.33;1.70;;;21.90;55.70;;;;;;4941166;28;20107;-53
2023/07/19 05:15:31;;;;;;;2.35;1.70;;;21.90;55.80;;;;;;4924993;28;20023;-50
2023/07/19 05:17:57;;;;;;;2.95;1.38;;;22.00;56.50;;;;;;4925696;28;20032;-51
2023/07/19 05:20:23;;;;;;;2.55;1.80;;;22.00;55.90;;;;;;4941183;28;20032;-53
2023/07/19 05:22:49;;;;;;;1.92;1.48;;;22.00;56.00;;;;;;4934752;28;20213;-51
2023/07/19 05:25:14;;;;;;;1.52;1.42;;;22.00;56.00;;;;;;4926269;28;20031;-51
2023/07/19 05:27:40;;;;;;;2.15;1.92;;;22.00;56.10;;;;;;4935092;28;20046;-50
2023/07/19 05:30:07;;;;;;;3.45;1.80;;;22.10;56.10;;;;;;4937797;28;20066;-50
2023/07/19 05:32:32;;;;;;;3.28;1.80;;;22.00;56.10;;;;;;4937334;28;20508;-50
2023/07/19 05:34:58;;;;;;;2.88;1.75;;;22.10;56.00;;;;;;4939468;28;20036;-51
2023/07/19 05:37:24;;;;;;;2.33;1.75;;;22.10;56.00;;;;;;4927516;28;20097;-53
2023/07/19 05:39:50;;;;;;;3.30;2.08;;;22.10;56.00;;;;;;4949113;28;20039;-51
2023/07/19 05:42:16;;;;;;;4.35;1.92;;;22.10;56.00;;;;;;4953536;28;20057;-50
2023/07/19 05:44:41;;;;;;;3.78;2.70;;;22.10;55.80;;;;;;4948611;28;20027;-50
2023/07/19 05:47:07;;;;;;;2.10;1.70;;;22.10;55.80;;;;;;4937217;28;20028;-50
2023/07/19 05:49:33;;;;;;;4.80;2.20;;;22.10;55.70;;;;;;4947158;28;20077;-51
2023/07/19 05:51:59;;;;;;;2.95;1.70;;;22.20;55.80;;;;;;4940257;28;20079;-51
2023/07/19 05:54:24;;;;;;;2.97;1.67;;;22.20;55.70;;;;;;4937545;28;20043;-50
2023/07/19 05:56:50;;;;;;;2.85;1.58;;;22.20;55.30;;;;;;4944151;28;20042;-51
2023/07/19 05:59:16;;;;;;;3.15;1.60;;;22.20;55.40;;;;;;4947307;28;20072;-50
2023/07/19 06:01:41;;;;;;;2.53;1.83;;;22.20;55.60;;;;;;4936449;28;20093;-52
2023/07/19 06:04:08;;;;;;;3.10;1.67;;;22.20;55.50;;;;;;4927184;28;20067;-51
2023/07/19 06:06:34;;;;;;;2.72;1.65;;;22.20;55.10;;;;;;4935488;28;20050;-50
2023/07/19 06:09:01;;;;;;;2.50;1.60;;;22.30;55.10;;;;;;4933134;28;20044;-52
2023/07/19 06:11:27;;;;;;;4.00;1.50;;;22.30;54.90;;;;;;4932693;28;20035;-52
2023/07/19 06:13:53;;;;;;;2.33;1.60;;;22.30;54.80;;;;;;4933069;28;20063;-51
2023/07/19 06:16:19;;;;;;;2.63;1.80;;;22.30;54.40;;;;;;4932821;28;20038;-50
2023/07/19 06:18:44;;;;;;;2.72;1.58;;;22.30;54.30;;;;;;4927615;28;20036;-52
2023/07/19 06:21:10;;;;;;;1.50;1.23;;;22.30;54.10;;;;;;4933290;28;20589;-50
2023/07/19 06:23:35;;;;;;;2.35;1.60;;;22.30;54.10;;;;;;4929521;28;20035;-51
2023/07/19 06:26:01;;;;;;;1.83;1.60;;;22.40;54.10;;;;;;4930619;28;20043;-53
2023/07/19 06:28:28;;;;;;;1.70;1.42;;;22.40;54.30;;;;;;4932570;28;20091;-51
2023/07/19 06:30:53;;;;;;;1.80;1.30;;;22.40;54.50;;;;;;4920094;28;20441;-51
2023/07/19 06:33:19;;;;;;;3.22;1.60;;;22.40;53.80;;;;;;4932698;28;20083;-51
2023/07/19 06:35:44;;;;;;;2.30;1.67;;;22.40;53.70;;;;;;4947258;28;20103;-51
2023/07/19 06:38:10;;;;;;;2.42;1.35;;;22.40;53.60;;;;;;4937870;28;20039;-50
2023/07/19 06:40:35;;;;;;;1.65;1.38;;;22.40;53.50;;;;;;4924444;28;20413;-50
2023/07/19 06:43:01;;;;;;;1.65;1.15;;;22.40;53.40;;;;;;4939475;28;20029;-51
2023/07/19 06:45:27;;;;;;;2.67;1.50;;;22.40;53.30;;;;;;4934138;28;20255;-50
2023/07/19 06:47:53;;;;;;;1.85;1.40;;;22.40;53.10;;;;;;4935304;28;20398;-49
2023/07/19 06:50:19;;;;;;;1.85;1.48;;;22.40;52.90;;;;;;4938941;28;20041;-52
2023/07/19 06:52:44;;;;;;;1.40;1.20;;;22.40;52.90;;;;;;4935537;28;20043;-53
2023/07/19 06:55:10;;;;;;;2.35;1.40;;;22.40;52.80;;;;;;4934939;28;20549;-52
2023/07/19 06:57:36;;;;;;;2.50;1.45;;;22.40;52.80;;;;;;4934467;28;20159;-50
2023/07/19 07:00:03;;;;;;;2.08;1.20;;;22.40;52.70;;;;;;4940071;28;20046;-52
2023/07/19 07:02:28;;;;;;;2.75;1.45;;;22.40;52.70;;;;;;4935762;28;20493;-50
2023/07/19 07:04:54;;;;;;;1.77;1.35;;;22.40;52.70;;;;;;4931507;28;20043;-54
2023/07/19 07:07:20;;;;;;;1.73;1.60;;;22.40;52.70;;;;;;4934818;28;20775;-50
2023/07/19 07:09:46;;;;;;;1.45;1.13;;;22.50;52.70;;;;;;4939633;28;20030;-51
2023/07/19 07:12:12;;;;;;;1.50;1.38;;;22.40;52.60;;;;;;4936617;28;20074;-51
2023/07/19 07:14:38;;;;;;;2.10;1.40;;;22.40;53.40;;;;;;4935766;28;20083;-52
2023/07/19 07:17:05;;;;;;;3.47;1.58;;;22.40;52.70;;;;;;4936187;28;20042;-50
2023/07/19 07:19:31;;;;;;;2.70;1.70;;;22.40;52.80;;;;;;4926359;28;20111;-53
2023/07/19 07:21:57;;;;;;;1.48;1.30;;;22.50;52.60;;;;;;4927220;28;20095;-51
2023/07/19 07:24:22;;;;;;;1.95;1.40;;;22.50;52.50;;;;;;4938755;28;20035;-53
2023/07/19 07:26:48;;;;;;;3.65;1.20;;;22.50;52.50;;;;;;4933761;28;20028;-51
2023/07/19 07:29:13;;;;;;;1.80;1.27;;;22.40;52.40;;;;;;4937462;28;20154;-50
2023/07/19 07:31:39;;;;;;;1.77;1.27;;;22.40;52.30;;;;;;4938858;28;20027;-51
2023/07/19 07:34:05;;;;;;;2.78;1.40;;;22.50;52.30;;;;;;4935776;28;20489;-51
2023/07/19 07:36:30;;;;;;;1.63;1.05;;;22.50;52.30;;;;;;4937288;28;20027;-50
2023/07/19 07:38:56;;;;;;;1.80;1.30;;;22.50;52.10;;;;;;4937682;28;20049;-50
2023/07/19 07:41:21;;;;;;;2.67;1.20;;;22.50;52.30;;;;;;4927476;28;20497;-53
2023/07/19 07:43:47;;;;;;;2.33;1.50;;;22.50;52.30;;;;;;4933693;28;20036;-54
2023/07/19 07:46:13;;;;;;;1.85;1.17;;;22.50;52.40;;;;;;4933872;28;20094;-51
2023/07/19 07:48:38;;;;;;;2.88;1.55;;;22.50;52.20;;;;;;4931864;28;20036;-51
2023/07/19 07:51:04;;;;;;;2.60;1.05;;;22.50;52.10;;;;;;4931585;28;20158;-51
2023/07/19 07:53:29;;;;;;;3.53;1.20;;;22.50;52.00;;;;;;4936243;28;20086;-54
2023/07/19 07:55:55;;;;;;;3.33;1.60;;;22.50;52.20;;;;;;4938487;28;20058;-56
2023/07/19 07:58:21;;;;;;;2.60;1.40;;;22.50;52.10;;;;;;4934587;28;20032;-50
2023/07/19 08:00:46;;;;;;;2.28;1.30;;;22.50;52.10;;;;;;4934190;28;20028;-53
2023/07/19 08:03:13;;;;;;;2.35;1.48;;;22.50;52.10;;;;;;4936288;28;20043;-50
2023/07/19 08:05:38;;;;;;;2.92;1.63;;;22.50;52.30;;;;;;4934916;28;20031;-52
2023/07/19 08:08:06;;;;;;;4.07;1.70;;;22.50;52.30;;;;;;4932995;28;20067;-53
2023/07/19 08:10:39;;;;;;;1.60;1.30;;;22.50;52.10;;;;;;4933436;28;20040;-53
2023/07/19 08:13:05;;;;;;;3.10;1.40;;;22.50;52.10;;;;;;4927284;28;20376;-51
2023/07/19 08:15:31;;;;;;;3.25;1.60;;;22.50;52.00;;;;;;4935753;28;20046;-54
2023/07/19 08:17:56;;;;;;;2.35;1.42;;;22.50;51.90;;;;;;4935406;28;20023;-51
2023/07/19 08:20:22;;;;;;;2.30;1.45;;;22.50;51.90;;;;;;4935862;28;20583;-52
2023/07/19 08:22:47;;;;;;;4.18;1.60;;;22.50;51.80;;;;;;4937311;28;20046;-51
2023/07/19 08:25:16;;;;;;;6.85;1.88;;;22.50;51.80;;;;;;4933610;28;20187;-54
2023/07/19 08:27:43;;;;;;;3.42;1.80;;;22.50;51.80;;;;;;4934669;28;20405;-50
2023/07/19 08:30:15;;;;;;;2.38;1.67;;;22.50;51.80;;;;;;4933833;28;20512;-51
2023/07/19 08:32:44;;;;;;;3.42;1.65;;;22.50;51.80;;;;;;4931783;28;20086;-50
2023/07/19 08:35:10;;;;;;;2.13;1.77;;;22.50;51.80;;;;;;4934935;28;20035;-50
2023/07/19 08:37:35;;;;;;;2.60;1.73;;;22.50;52.30;;;;;;4933691;28;20031;-52
2023/07/19 08:40:01;;;;;;;3.03;2.03;;;22.50;52.30;;;;;;4947946;28;20047;-51
2023/07/19 08:42:27;;;;;;;2.25;1.60;;;22.50;52.00;;;;;;4935715;28;20639;-52
2023/07/19 08:44:54;;;;;;;4.13;1.40;;;22.50;51.90;;;;;;4933055;28;20106;-50
2023/07/19 08:47:19;;;;;;;2.40;1.45;;;22.50;51.90;;;;;;4932064;28;20036;-54
2023/07/19 08:49:46;;;;;;;3.95;1.88;;;22.50;51.90;;;;;;4927113;28;24760;-51
2023/07/19 08:52:13;;;;;;;2.55;1.50;;;22.50;51.80;;;;;;4941823;28;20027;-54
2023/07/19 08:54:39;;;;;;;3.72;1.58;;;22.50;51.90;;;;;;4929546;28;20036;-53
2023/07/19 08:57:05;;;;;;;4.38;1.60;;;22.50;52.10;;;;;;4938822;28;20082;-51
2023/07/19 08:59:31;;;;;;;2.63;1.80;;;22.40;52.30;;;;;;4932117;28;20046;-51
2023/07/19 09:01:57;;;;;;;2.38;1.77;;;22.40;52.40;;;;;;4942568;28;20035;-52
2023/07/19 09:04:22;;;;;;;2.05;1.38;;;22.50;52.40;;;;;;4928318;28;20050;-51
2023/07/19 09:06:49;;;;;;;3.05;1.58;;;22.50;52.20;;;;;;4933819;28;20031;-50
2023/07/19 09:09:16;;;;;;;2.08;1.73;;;22.50;52.10;;;;;;4935947;28;20055;-51
2023/07/19 09:11:51;;;;;;;2.15;1.95;;;22.50;52.20;;;;;;4930609;28;20419;-52
2023/07/19 09:14:17;;;;;;;2.88;1.98;;;22.50;52.00;;;;;;4929572;28;20102;-51
2023/07/19 09:16:45;;;;;;;2.63;1.67;;;22.50;52.00;;;;;;4931146;28;20075;-51
2023/07/19 09:19:10;;;;;;;3.50;1.60;;;22.50;51.90;;;;;;4936139;28;20035;-51
2023/07/19 09:21:44;;;;;;;4.55;2.38;;;22.50;51.90;;;;;;4924806;28;20094;-52
2023/07/19 09:24:11;;;;;;;4.22;1.83;;;22.50;52.00;;;;;;4927873;28;20653;-51
2023/07/19 09:26:57;;;;;;;2.45;1.80;;;22.50;52.00;;;;;;4934543;28;20039;-52
2023/07/19 09:29:23;;;;;;;;;;;22.50;52.00;;;;;;4928378;28;20038;-51
2023/07/19 09:31:49;;;;;;;2.95;2.10;;;22.50;51.70;;;;;;4935284;28;19910;-51
2023/07/19 09:34:15;;;;;;;4.57;2.00;;;22.50;51.90;;;;;;4943683;28;20032;-51
2023/07/19 09:36:40;;;;;;;3.13;2.08;;;22.60;51.60;;;;;;4942757;28;20023;-52
2023/07/19 09:39:06;;;;;;;2.13;1.65;;;22.60;51.60;;;;;;4939753;28;20031;-50
2023/07/19 09:41:33;;;;;;;3.92;1.92;;;22.60;51.60;;;;;;4939314;28;20378;-51
2023/07/19 09:43:59;;;;;;;2.38;1.95;;;22.60;51.40;;;;;;4942170;28;20083;-51
2023/07/19 09:46:25;;;;;;;3.40;2.03;;;22.60;51.30;;;;;;4944292;28;20042;-51
2023/07/19 09:48:50;;;;;;;3.05;1.67;;;22.60;51.40;;;;;;4938684;28;20457;-50
2023/07/19 09:51:18;;;;;;;2.83;1.55;;;22.60;51.50;;;;;;4941365;28;20036;-50
2023/07/19 09:53:44;;;;;;;4.40;2.17;;;22.60;51.50;;;;;;4939460;28;20110;-51
2023/07/19 09:56:11;;;;;;;2.97;1.92;;;22.60;51.50;;;;;;4939439;28;20073;-50
2023/07/19 09:58:39;;;;;;;3.45;1.75;;;22.60;51.50;;;;;;4940978;28;20342;-53
2023/07/19 10:01:04;;;;;;;2.72;2.00;;;22.60;51.50;;;;;;4942508;28;20079;-51
2023/07/19 10:03:30;;;;;;;3.45;1.92;;;22.60;51.40;;;;;;4942606;28;20552;-51
2023/07/19 10:05:56;;;;;;;5.97;2.20;;;22.60;51.30;;;;;;4931889;28;20032;-50
2023/07/19 10:08:22;;;;;;;4.00;2.03;;;22.60;51.20;;;;;;4938689;28;20024;-51
2023/07/19 10:10:56;;;;;;;2.65;1.67;;;22.60;51.00;;;;;;4931016;28;20039;-51
2023/07/19 10:13:31;;;;;;;2.88;1.90;;;22.60;51.10;;;;;;4932908;28;20111;-50
2023/07/19 10:15:57;;;;;;;3.75;1.95;;;22.60;51.10;;;;;;4943495;28;20035;-55
2023/07/19 10:18:22;;;;;;;5.70;1.88;;;22.60;51.20;;;;;;4943582;28;20078;-50
2023/07/19 10:21:02;;;;;;;2.63;1.90;;;22.60;51.20;;;;;;4929714;28;20055;-54
2023/07/19 10:23:30;;;;;;;2.30;1.77;;;22.60;51.00;;;;;;4948138;28;20109;-50
2023/07/19 10:25:56;;;;;;;2.85;2.10;;;22.60;51.20;;;;;;4926119;28;20673;-50
2023/07/19 10:28:30;;;;;;;2.78;1.98;;;22.60;51.10;;;;;;4947532;28;20057;-50
2023/07/19 10:31:00;;;;;;;5.70;2.22;;;22.60;51.10;;;;;;4943697;28;20035;-50
2023/07/19 10:33:30;;;;;;;4.93;1.92;;;22.60;51.20;;;;;;4942036;28;20042;-50
2023/07/19 10:36:06;;;;;;;3.60;2.17;;;22.60;51.10;;;;;;4943139;28;20059;-51
2023/07/19 10:38:32;;;;;;;2.53;1.98;;;22.60;51.00;;;;;;4947150;28;20031;-51
2023/07/19 10:41:03;;;;;;;3.92;2.00;;;22.60;51.10;;;;;;4944052;28;20042;-51
2023/07/19 10:43:31;;;;;;;2.47;1.83;;;22.60;51.10;;;;;;4945401;28;20031;-50
2023/07/19 10:46:00;;;;;;;4.10;2.42;;;22.70;51.10;;;;;;4943413;28;20031;-52
2023/07/19 10:48:27;;;;;;;3.33;2.13;;;22.60;51.20;;;;;;4943824;28;20722;-53
2023/07/19 10:50:56;;;;;;;4.07;2.17;;;22.60;51.40;;;;;;4943677;28;20023;-50
2023/07/19 10:53:22;;;;;;;4.30;2.08;;;22.60;51.30;;;;;;4936508;28;20023;-52
2023/07/19 10:55:55;;;;;;;2.15;1.92;;;22.70;51.30;;;;;;4926903;28;20713;-51
2023/07/19 10:58:21;;;;;;;2.75;1.90;;;22.60;51.00;;;;;;4931839;28;20027;-51
2023/07/19 11:00:48;;;;;;;5.90;2.42;;;22.60;51.10;;;;;;4932428;28;20246;-51
2023/07/19 11:03:14;;;;;;;3.33;2.00;;;22.60;51.10;;;;;;4935793;28;20140;-52
2023/07/19 11:05:45;;;;;;;5.20;2.20;;;22.60;51.00;;;;;;4935403;28;20054;-51
2023/07/19 11:08:21;;;;;;;5.28;2.88;;;22.60;50.70;;;;;;4929166;28;20251;-51
2023/07/19 11:10:49;;;;;;;4.40;2.08;;;22.60;50.80;;;;;;4932581;28;20040;-51
2023/07/19 11:13:16;;;;;;;4.10;2.28;;;22.60;50.70;;;;;;4931639;28;20055;-53
2023/07/19 11:15:47;;;;;;;5.20;2.45;;;22.60;50.40;;;;;;4935761;28;20119;-50
2023/07/19 11:18:21;;;;;;;2.95;2.40;;;22.70;50.60;;;;;;4934490;28;20488;-50
2023/07/19 11:20:48;;;;;;;2.92;2.20;;;22.60;50.50;;;;;;4932150;28;20073;-50
2023/07/19 11:23:14;;;;;;;3.00;2.30;;;22.70;50.80;;;;;;4934834;28;20090;-53
2023/07/19 11:25:40;;;;;;;4.40;2.58;;;22.70;50.50;;;;;;4932229;28;20024;-50
2023/07/19 11:28:05;;;;;;;3.20;2.10;;;22.60;50.40;;;;;;4932414;28;20035;-52
2023/07/19 11:30:38;;;;;;;3.53;2.30;;;22.60;50.40;;;;;;4934121;28;20044;-52
2023/07/19 11:33:06;;;;;;;3.78;2.55;;;22.60;50.40;;;;;;4920448;28;20043;-51
2023/07/19 11:35:32;;;;;;;7.95;2.50;;;22.60;50.40;;;;;;4937327;28;20745;-50
2023/07/19 11:37:58;;;;;;;3.75;2.50;;;22.60;50.30;;;;;;4930534;28;20044;-54
2023/07/19 11:40:24;;;;;;;2.88;2.22;;;22.60;50.50;;;;;;4937479;28;20032;-50
2023/07/19 11:42:52;;;;;;;2.65;2.30;;;22.60;50.40;;;;;;4931015;28;20036;-51
2023/07/19 11:45:25;;;;;;;4.68;2.28;;;22.70;50.70;;;;;;4938932;28;20046;-50
2023/07/19 11:47:56;;;;;;;8.07;2.63;;;22.70;50.60;;;;;;4933847;28;20111;-52
2023/07/19 11:50:23;;;;;;;3.28;2.10;;;22.70;50.60;;;;;;4932776;28;20043;-51
2023/07/19 11:52:54;;;;;;;4.90;2.35;;;22.70;50.60;;;;;;4928867;28;20035;-49
2023/07/19 11:55:20;;;;;;;5.70;2.60;;;22.70;50.70;;;;;;4934089;28;20154;-54
2023/07/19 11:57:51;;;;;;;3.95;2.80;;;22.70;50.70;;;;;;4934323;28;20118;-51
2023/07/19 12:00:24;;;;;;;5.03;2.75;;;22.70;50.60;;;;;;4941806;28;21096;-54
2023/07/19 12:02:51;;;;;;;4.38;2.05;;;22.70;50.80;;;;;;4934364;28;20056;-51
2023/07/19 12:05:18;;;;;;;4.03;2.13;;;22.70;50.80;;;;;;4939840;28;20039;-50
2023/07/19 12:07:45;;;;;;;4.70;2.08;;;22.70;50.80;;;;;;4940320;28;20057;-50
2023/07/19 12:10:11;;;;;;;2.80;2.08;;;22.70;50.80;;;;;;4939368;28;20043;-49
2023/07/19 12:12:37;;;;;;;3.97;2.50;;;22.70;50.80;;;;;;4935730;28;20035;-54
2023/07/19 12:15:08;;;;;;;3.03;2.10;;;22.70;50.90;;;;;;4946655;28;20035;-51
2023/07/19 12:17:36;;;;;;;6.00;2.20;;;22.70;50.90;;;;;;4939824;28;20031;-50
2023/07/19 12:20:03;;;;;;;6.82;2.78;;;22.60;50.60;;;;;;4935173;28;20048;-53
2023/07/19 12:22:29;;;;;;;5.28;2.65;;;22.70;50.70;;;;;;4933105;28;20035;-53
2023/07/19 12:24:55;;;;;;;3.97;2.55;;;22.70;50.50;;;;;;4942033;28;20039;-50
2023/07/19 12:27:21;;;;;;;3.47;2.08;;;22.70;50.30;;;;;;4935998;28;20028;-50
2023/07/19 12:29:47;;;;;;;7.43;3.10;;;22.70;50.10;;;;;;4930733;28;20053;-50
2023/07/19 12:32:14;;;;;;;6.05;2.30;;;22.70;50.30;;;;;;4930468;28;20147;-52
2023/07/19 12:34:39;;;;;;;3.22;2.40;;;22.70;50.20;;;;;;4933027;28;20190;-50
2023/07/19 12:37:05;;;;;;;4.40;2.58;;;22.70;50.50;;;;;;4928934;28;20489;-50
2023/07/19 12:39:32;;;;;;;3.17;2.20;;;22.80;50.40;;;;;;4937736;28;20051;-50
2023/07/19 12:41:58;;;;;;;3.33;2.53;;;22.80;50.60;;;;;;4928759;28;20336;-57
2023/07/19 12:44:24;;;;;;;6.15;2.20;;;22.70;50.30;;;;;;4940052;28;20031;-50